Terminal Aerodrome Forecast
Issued by NWS

Home | Current Version | Previous Version | Text Only | Print | Product List | Glossary On
Versions: 1 2 3 4 5 6 7 8 9 10 11 12 13 14
334
FTUS42 TJSJ 312338
TAFJMZ
TAF
TJMZ 312338Z 0100/0124 07005KT P6SM -RA SCT025 BKN060 BKN090
     FM010200 05003KT P6SM FEW030 SCT070 BKN120
     FM011530 14009KT P6SM VCSH SCT025 BKN040
      AMD NOT SKED=

USA.gov is the U.S. government's official web portal to all federal, state and local government web resources and services.